sensor_id;sensor_type;location;lat;lon;timestamp;pressure;altitude;pressure_sealevel;temperature;humidity
39275;BME280;24980;48.874;2.332;2023-02-28T00:01:48;102187.85;;;27.91;30.32
39275;BME280;24980;48.874;2.332;2023-02-28T00:04:18;102186.02;;;27.89;30.41
39275;BME280;24980;48.874;2.332;2023-02-28T00:06:49;102186.83;;;27.91;30.48
39275;BME280;24980;48.874;2.332;2023-02-28T00:09:19;102189.30;;;27.91;30.56
39275;BME280;24980;48.874;2.332;2023-02-28T00:11:49;102187.54;;;27.94;30.62
39275;BME280;24980;48.874;2.332;2023-02-28T00:14:20;102186.17;;;27.94;30.67
39275;BME280;24980;48.874;2.332;2023-02-28T00:16:50;102189.33;;;27.94;30.74
39275;BME280;24980;48.874;2.332;2023-02-28T00:19:20;102189.38;;;27.92;30.81
39275;BME280;24980;48.874;2.332;2023-02-28T00:21:50;102192.53;;;27.92;30.85
39275;BME280;24980;48.874;2.332;2023-02-28T00:24:21;102201.12;;;27.93;30.90
39275;BME280;24980;48.874;2.332;2023-02-28T00:26:51;102197.46;;;27.93;30.93
39275;BME280;24980;48.874;2.332;2023-02-28T00:29:21;102198.58;;;27.92;30.97
39275;BME280;24980;48.874;2.332;2023-02-28T00:31:51;102199.52;;;27.91;31.00
39275;BME280;24980;48.874;2.332;2023-02-28T00:34:22;102198.45;;;27.90;31.02
39275;BME280;24980;48.874;2.332;2023-02-28T00:36:52;102196.62;;;27.91;31.04
39275;BME280;24980;48.874;2.332;2023-02-28T00:39:22;102201.40;;;27.91;31.06
39275;BME280;24980;48.874;2.332;2023-02-28T00:41:52;102203.52;;;27.92;31.08
39275;BME280;24980;48.874;2.332;2023-02-28T00:44:26;102205.40;;;27.92;31.08
39275;BME280;24980;48.874;2.332;2023-02-28T00:46:53;102213.88;;;27.90;31.11
39275;BME280;24980;48.874;2.332;2023-02-28T00:49:24;102214.75;;;27.88;31.14
39275;BME280;24980;48.874;2.332;2023-02-28T00:51:55;102211.68;;;27.87;31.16
39275;BME280;24980;48.874;2.332;2023-02-28T00:54:27;102212.05;;;27.87;31.17
39275;BME280;24980;48.874;2.332;2023-02-28T00:56:55;102211.77;;;27.88;31.18
39275;BME280;24980;48.874;2.332;2023-02-28T00:59:25;102217.72;;;27.89;31.18
39275;BME280;24980;48.874;2.332;2023-02-28T01:01:56;102221.22;;;27.88;31.20
39275;BME280;24980;48.874;2.332;2023-02-28T01:04:26;102221.31;;;27.87;31.21
39275;BME280;24980;48.874;2.332;2023-02-28T01:06:56;102218.11;;;27.86;31.24
39275;BME280;24980;48.874;2.332;2023-02-28T01:09:27;102223.09;;;27.87;31.24
39275;BME280;24980;48.874;2.332;2023-02-28T01:11:57;102220.53;;;27.89;31.24
39275;BME280;24980;48.874;2.332;2023-02-28T01:14:28;102223.81;;;27.91;31.23
39275;BME280;24980;48.874;2.332;2023-02-28T01:16:58;102221.08;;;27.91;31.24
39275;BME280;24980;48.874;2.332;2023-02-28T01:19:28;102225.05;;;27.88;31.26
39275;BME280;24980;48.874;2.332;2023-02-28T01:22:02;102228.80;;;27.89;31.26
39275;BME280;24980;48.874;2.332;2023-02-28T01:24:33;102228.92;;;27.91;31.25
39275;BME280;24980;48.874;2.332;2023-02-28T01:27:00;102230.62;;;27.92;31.25
39275;BME280;24980;48.874;2.332;2023-02-28T01:29:30;102227.55;;;27.92;31.25
39275;BME280;24980;48.874;2.332;2023-02-28T01:32:01;102224.66;;;27.92;31.25
39275;BME280;24980;48.874;2.332;2023-02-28T01:34:31;102226.28;;;27.92;31.26
39275;BME280;24980;48.874;2.332;2023-02-28T01:37:01;102224.98;;;27.93;31.26
39275;BME280;24980;48.874;2.332;2023-02-28T01:39:34;102220.39;;;27.93;31.26
39275;BME280;24980;48.874;2.332;2023-02-28T01:42:04;102219.58;;;27.93;31.27
39275;BME280;24980;48.874;2.332;2023-02-28T01:44:58;102216.17;;;27.94;31.25
39275;BME280;24980;48.874;2.332;2023-02-28T01:47:04;102210.72;;;27.94;31.25
39275;BME280;24980;48.874;2.332;2023-02-28T01:49:34;102208.30;;;27.92;31.28
39275;BME280;24980;48.874;2.332;2023-02-28T01:52:04;102209.48;;;27.92;31.29
39275;BME280;24980;48.874;2.332;2023-02-28T01:54:35;102206.16;;;27.92;31.28
39275;BME280;24980;48.874;2.332;2023-02-28T01:57:09;102206.25;;;27.92;31.28
39275;BME280;24980;48.874;2.332;2023-02-28T01:59:39;102208.89;;;27.91;31.30
39275;BME280;24980;48.874;2.332;2023-02-28T02:02:06;102214.39;;;27.89;31.31
39275;BME280;24980;48.874;2.332;2023-02-28T02:04:57;102211.08;;;27.89;31.31
39275;BME280;24980;48.874;2.332;2023-02-28T02:07:08;102212.52;;;27.89;31.32
39275;BME280;24980;48.874;2.332;2023-02-28T02:09:40;102200.08;;;27.89;31.33
39275;BME280;24980;48.874;2.332;2023-02-28T02:12:27;102197.44;;;27.89;31.33
39275;BME280;24980;48.874;2.332;2023-02-28T02:14:55;102205.11;;;27.88;31.34
39275;BME280;24980;48.874;2.332;2023-02-28T02:17:25;102203.75;;;27.88;31.35
39275;BME280;24980;48.874;2.332;2023-02-28T02:25:10;102197.73;;;27.92;31.33
39275;BME280;24980;48.874;2.332;2023-02-28T02:27:22;102195.59;;;27.93;31.33
39275;BME280;24980;48.874;2.332;2023-02-28T02:29:58;102196.78;;;27.93;31.34
39275;BME280;24980;48.874;2.332;2023-02-28T02:34:55;102188.60;;;27.93;31.36
39275;BME280;24980;48.874;2.332;2023-02-28T02:37:42;102187.03;;;27.93;31.36
39275;BME280;24980;48.874;2.332;2023-02-28T02:39:48;102184.85;;;27.93;31.36
39275;BME280;24980;48.874;2.332;2023-02-28T02:42:16;102187.49;;;27.93;31.36
39275;BME280;24980;48.874;2.332;2023-02-28T02:44:50;102188.48;;;27.94;31.34
39275;BME280;24980;48.874;2.332;2023-02-28T02:47:18;102190.34;;;27.94;31.33
39275;BME280;24980;48.874;2.332;2023-02-28T02:49:50;102189.71;;;27.93;31.36
39275;BME280;24980;48.874;2.332;2023-02-28T02:52:18;102192.19;;;27.92;31.37
39275;BME280;24980;48.874;2.332;2023-02-28T02:54:47;102192.05;;;27.94;31.36
39275;BME280;24980;48.874;2.332;2023-02-28T02:57:24;102187.75;;;27.92;31.37
39275;BME280;24980;48.874;2.332;2023-02-28T02:59:45;102191.42;;;27.92;31.38
39275;BME280;24980;48.874;2.332;2023-02-28T03:02:17;102186.19;;;27.90;31.39
39275;BME280;24980;48.874;2.332;2023-02-28T03:04:51;102184.27;;;27.91;31.40
39275;BME280;24980;48.874;2.332;2023-02-28T03:07:17;102183.58;;;27.92;31.40
39275;BME280;24980;48.874;2.332;2023-02-28T03:09:54;102190.02;;;27.94;31.40
39275;BME280;24980;48.874;2.332;2023-02-28T03:12:17;102187.62;;;27.94;31.40
39275;BME280;24980;48.874;2.332;2023-02-28T03:22:38;102189.38;;;27.92;31.42
39275;BME280;24980;48.874;2.332;2023-02-28T03:25:09;102193.88;;;27.93;31.44
39275;BME280;24980;48.874;2.332;2023-02-28T03:27:30;102190.90;;;27.93;31.42
39275;BME280;24980;48.874;2.332;2023-02-28T03:32:38;102197.20;;;27.93;31.42
39275;BME280;24980;48.874;2.332;2023-02-28T03:35:00;102195.67;;;27.93;31.45
39275;BME280;24980;48.874;2.332;2023-02-28T03:37:25;102194.40;;;27.92;31.43
39275;BME280;24980;48.874;2.332;2023-02-28T03:40:00;102197.67;;;27.94;31.44
39275;BME280;24980;48.874;2.332;2023-02-28T03:42:28;102194.61;;;27.94;31.44
39275;BME280;24980;48.874;2.332;2023-02-28T03:45:04;102195.03;;;27.94;31.44
39275;BME280;24980;48.874;2.332;2023-02-28T03:47:36;102192.68;;;27.97;31.44
39275;BME280;24980;48.874;2.332;2023-02-28T03:50:03;102195.56;;;27.99;31.44
39275;BME280;24980;48.874;2.332;2023-02-28T03:52:31;102190.73;;;28.02;31.43
39275;BME280;24980;48.874;2.332;2023-02-28T03:55:00;102194.66;;;28.01;31.45
39275;BME280;24980;48.874;2.332;2023-02-28T04:00:10;102193.77;;;27.99;31.47
39275;BME280;24980;48.874;2.332;2023-02-28T04:02:29;102194.03;;;28.00;31.49
39275;BME280;24980;48.874;2.332;2023-02-28T04:05:00;102200.97;;;28.01;31.48
39275;BME280;24980;48.874;2.332;2023-02-28T04:07:30;102201.56;;;28.01;31.48
39275;BME280;24980;48.874;2.332;2023-02-28T04:10:00;102205.58;;;28.01;31.48
39275;BME280;24980;48.874;2.332;2023-02-28T04:12:32;102206.64;;;28.00;31.49
39275;BME280;24980;48.874;2.332;2023-02-28T04:15:01;102205.88;;;27.99;31.49
39275;BME280;24980;48.874;2.332;2023-02-28T04:17:31;102204.73;;;28.00;31.49
39275;BME280;24980;48.874;2.332;2023-02-28T04:20:01;102206.50;;;28.02;31.49
39275;BME280;24980;48.874;2.332;2023-02-28T04:22:32;102208.21;;;28.02;31.49
39275;BME280;24980;48.874;2.332;2023-02-28T04:25:02;102208.64;;;28.02;31.49
39275;BME280;24980;48.874;2.332;2023-02-28T04:27:32;102212.30;;;28.02;31.49
39275;BME280;24980;48.874;2.332;2023-02-28T04:30:02;102212.21;;;28.03;31.49
39275;BME280;24980;48.874;2.332;2023-02-28T04:32:33;102214.12;;;28.04;31.49
39275;BME280;24980;48.874;2.332;2023-02-28T04:35:03;102214.48;;;28.03;31.50
39275;BME280;24980;48.874;2.332;2023-02-28T04:37:34;102219.59;;;28.03;31.50
39275;BME280;24980;48.874;2.332;2023-02-28T04:40:04;102217.59;;;28.02;31.50
39275;BME280;24980;48.874;2.332;2023-02-28T04:42:34;102223.56;;;28.00;31.52
39275;BME280;24980;48.874;2.332;2023-02-28T04:45:05;102222.61;;;28.02;31.51
39275;BME280;24980;48.874;2.332;2023-02-28T04:47:36;102227.09;;;28.04;31.51
39275;BME280;24980;48.874;2.332;2023-02-28T04:50:07;102224.42;;;28.06;31.51
39275;BME280;24980;48.874;2.332;2023-02-28T04:52:36;102225.91;;;28.06;31.50
39275;BME280;24980;48.874;2.332;2023-02-28T04:55:07;102231.00;;;28.05;31.50
39275;BME280;24980;48.874;2.332;2023-02-28T04:57:37;102229.23;;;28.06;31.51
39275;BME280;24980;48.874;2.332;2023-02-28T05:00:10;102230.14;;;28.07;31.50
39275;BME280;24980;48.874;2.332;2023-02-28T05:02:38;102230.47;;;28.08;31.50
39275;BME280;24980;48.874;2.332;2023-02-28T05:05:08;102228.09;;;28.07;31.51
39275;BME280;24980;48.874;2.332;2023-02-28T05:07:38;102236.31;;;28.06;31.52
39275;BME280;24980;48.874;2.332;2023-02-28T05:10:09;102237.22;;;28.05;31.54
39275;BME280;24980;48.874;2.332;2023-02-28T05:12:38;102240.80;;;28.06;31.55
39275;BME280;24980;48.874;2.332;2023-02-28T05:15:12;102240.88;;;28.07;31.55
39275;BME280;24980;48.874;2.332;2023-02-28T05:17:39;102237.72;;;28.07;31.55
39275;BME280;24980;48.874;2.332;2023-02-28T05:20:10;102241.72;;;28.08;31.55
39275;BME280;24980;48.874;2.332;2023-02-28T05:22:40;102247.78;;;28.06;31.56
39275;BME280;24980;48.874;2.332;2023-02-28T05:25:13;102253.91;;;28.07;31.56
39275;BME280;24980;48.874;2.332;2023-02-28T05:27:41;102253.83;;;28.07;31.56
39275;BME280;24980;48.874;2.332;2023-02-28T05:30:12;102254.59;;;28.07;31.57
39275;BME280;24980;48.874;2.332;2023-02-28T05:32:42;102252.45;;;28.09;31.55
39275;BME280;24980;48.874;2.332;2023-02-28T05:35:12;102255.87;;;28.08;31.55
39275;BME280;24980;48.874;2.332;2023-02-28T05:37:42;102260.91;;;28.07;31.57
39275;BME280;24980;48.874;2.332;2023-02-28T05:40:12;102263.33;;;28.06;31.57
39275;BME280;24980;48.874;2.332;2023-02-28T05:42:43;102264.36;;;28.06;31.58
39275;BME280;24980;48.874;2.332;2023-02-28T05:45:13;102268.28;;;28.06;31.57
39275;BME280;24980;48.874;2.332;2023-02-28T05:47:43;102269.44;;;28.06;31.58
39275;BME280;24980;48.874;2.332;2023-02-28T05:50:13;102268.66;;;28.07;31.57
39275;BME280;24980;48.874;2.332;2023-02-28T05:52:43;102273.96;;;28.05;31.58
39275;BME280;24980;48.874;2.332;2023-02-28T05:55:14;102275.16;;;28.05;31.58
39275;BME280;24980;48.874;2.332;2023-02-28T05:57:44;102274.50;;;28.06;31.57
39275;BME280;24980;48.874;2.332;2023-02-28T06:00:14;102269.17;;;28.07;31.56
39275;BME280;24980;48.874;2.332;2023-02-28T06:02:45;102268.58;;;28.07;31.56
39275;BME280;24980;48.874;2.332;2023-02-28T06:05:17;102267.22;;;28.07;31.57
39275;BME280;24980;48.874;2.332;2023-02-28T06:07:45;102262.73;;;28.06;31.58
39275;BME280;24980;48.874;2.332;2023-02-28T06:10:15;102266.36;;;28.06;31.58
39275;BME280;24980;48.874;2.332;2023-02-28T06:12:45;102266.87;;;28.07;31.58
39275;BME280;24980;48.874;2.332;2023-02-28T06:15:16;102270.27;;;28.08;31.57
39275;BME280;24980;48.874;2.332;2023-02-28T06:17:46;102264.23;;;28.07;31.58
39275;BME280;24980;48.874;2.332;2023-02-28T06:20:16;102270.28;;;28.06;31.60
39275;BME280;24980;48.874;2.332;2023-02-28T06:22:46;102272.00;;;28.04;31.61
39275;BME280;24980;48.874;2.332;2023-02-28T06:25:17;102270.38;;;28.05;31.61
39275;BME280;24980;48.874;2.332;2023-02-28T06:27:47;102275.48;;;28.07;31.62
39275;BME280;24980;48.874;2.332;2023-02-28T06:30:17;102280.00;;;28.07;31.62
39275;BME280;24980;48.874;2.332;2023-02-28T06:32:47;102280.50;;;28.08;31.61
39275;BME280;24980;48.874;2.332;2023-02-28T06:35:17;102283.15;;;28.08;31.63
39275;BME280;24980;48.874;2.332;2023-02-28T06:37:47;102280.86;;;28.07;31.64
39275;BME280;24980;48.874;2.332;2023-02-28T06:40:17;102284.94;;;28.07;31.64
39275;BME280;24980;48.874;2.332;2023-02-28T06:42:48;102279.56;;;28.09;31.64
39275;BME280;24980;48.874;2.332;2023-02-28T06:45:18;102280.41;;;28.09;31.63
39275;BME280;24980;48.874;2.332;2023-02-28T06:47:48;102281.95;;;28.08;31.64
39275;BME280;24980;48.874;2.332;2023-02-28T06:50:18;102279.14;;;28.08;31.65
39275;BME280;24980;48.874;2.332;2023-02-28T06:52:48;102277.77;;;28.09;31.65
39275;BME280;24980;48.874;2.332;2023-02-28T06:55:19;102280.33;;;28.09;31.64
39275;BME280;24980;48.874;2.332;2023-02-28T06:57:49;102281.99;;;28.10;31.64
39275;BME280;24980;48.874;2.332;2023-02-28T07:00:19;102277.59;;;28.09;31.64
39275;BME280;24980;48.874;2.332;2023-02-28T07:02:49;102283.66;;;28.08;31.65
39275;BME280;24980;48.874;2.332;2023-02-28T07:05:19;102283.92;;;28.07;31.66
39275;BME280;24980;48.874;2.332;2023-02-28T07:07:50;102286.30;;;28.09;31.65
39275;BME280;24980;48.874;2.332;2023-02-28T07:10:20;102285.87;;;28.09;31.66
39275;BME280;24980;48.874;2.332;2023-02-28T07:12:50;102279.83;;;28.07;31.68
39275;BME280;24980;48.874;2.332;2023-02-28T07:15:20;102285.71;;;28.07;31.70
39275;BME280;24980;48.874;2.332;2023-02-28T07:17:50;102284.95;;;28.07;31.68
39275;BME280;24980;48.874;2.332;2023-02-28T07:20:20;102291.84;;;28.09;31.69
39275;BME280;24980;48.874;2.332;2023-02-28T07:22:51;102285.86;;;28.14;31.69
39275;BME280;24980;48.874;2.332;2023-02-28T07:25:22;102287.45;;;28.20;31.67
39275;BME280;24980;48.874;2.332;2023-02-28T07:27:52;102283.35;;;28.21;31.67
39275;BME280;24980;48.874;2.332;2023-02-28T07:30:22;102288.48;;;28.19;31.69
39275;BME280;24980;48.874;2.332;2023-02-28T07:32:52;102288.44;;;28.18;31.70
39275;BME280;24980;48.874;2.332;2023-02-28T07:35:23;102294.92;;;28.18;31.70
39275;BME280;24980;48.874;2.332;2023-02-28T07:37:53;102297.13;;;28.18;31.71
39275;BME280;24980;48.874;2.332;2023-02-28T07:40:23;102295.64;;;28.20;31.71
39275;BME280;24980;48.874;2.332;2023-02-28T07:42:53;102302.80;;;28.19;31.73
39275;BME280;24980;48.874;2.332;2023-02-28T07:45:23;102304.05;;;28.18;31.75
39275;BME280;24980;48.874;2.332;2023-02-28T07:47:55;102308.35;;;28.15;31.77
39275;BME280;24980;48.874;2.332;2023-02-28T07:50:24;102309.30;;;28.15;31.79
39275;BME280;24980;48.874;2.332;2023-02-28T07:52:54;102311.84;;;28.16;31.80
39275;BME280;24980;48.874;2.332;2023-02-28T07:55:24;102314.22;;;28.21;31.80
39275;BME280;24980;48.874;2.332;2023-02-28T07:57:54;102312.08;;;28.26;31.82
39275;BME280;24980;48.874;2.332;2023-02-28T08:00:24;102312.25;;;28.26;31.85
39275;BME280;24980;48.874;2.332;2023-02-28T08:02:54;102311.86;;;28.25;31.87
39275;BME280;24980;48.874;2.332;2023-02-28T08:05:24;102311.48;;;28.26;31.89
39275;BME280;24980;48.874;2.332;2023-02-28T08:07:54;102307.39;;;28.26;31.89
39275;BME280;24980;48.874;2.332;2023-02-28T08:10:24;102311.77;;;28.25;31.91
39275;BME280;24980;48.874;2.332;2023-02-28T08:12:54;102311.70;;;28.24;31.94
39275;BME280;24980;48.874;2.332;2023-02-28T08:15:24;102310.50;;;28.24;31.95
39275;BME280;24980;48.874;2.332;2023-02-28T08:17:54;102312.08;;;28.26;31.96
39275;BME280;24980;48.874;2.332;2023-02-28T08:20:26;102313.86;;;28.28;31.96
39275;BME280;24980;48.874;2.332;2023-02-28T08:22:55;102310.27;;;28.28;31.98
39275;BME280;24980;48.874;2.332;2023-02-28T08:25:28;102310.53;;;28.28;32.01
39275;BME280;24980;48.874;2.332;2023-02-28T08:27:56;102317.01;;;28.28;32.02
39275;BME280;24980;48.874;2.332;2023-02-28T08:30:26;102318.55;;;28.28;32.02
39275;BME280;24980;48.874;2.332;2023-02-28T08:32:56;102330.10;;;28.29;32.03
39275;BME280;24980;48.874;2.332;2023-02-28T08:35:27;102327.20;;;28.30;32.02
39275;BME280;24980;48.874;2.332;2023-02-28T08:37:57;102314.83;;;28.30;32.01
39275;BME280;24980;48.874;2.332;2023-02-28T08:40:27;102319.59;;;28.31;32.01
39275;BME280;24980;48.874;2.332;2023-02-28T08:42:57;102323.86;;;28.32;32.02
39275;BME280;24980;48.874;2.332;2023-02-28T08:45:27;102326.20;;;28.32;32.03
39275;BME280;24980;48.874;2.332;2023-02-28T08:47:57;102327.48;;;28.33;32.03
39275;BME280;24980;48.874;2.332;2023-02-28T08:50:27;102322.95;;;28.34;32.02
39275;BME280;24980;48.874;2.332;2023-02-28T08:53:01;102321.59;;;28.35;32.04
39275;BME280;24980;48.874;2.332;2023-02-28T08:55:28;102324.66;;;28.35;32.05
39275;BME280;24980;48.874;2.332;2023-02-28T08:57:58;102325.18;;;28.33;32.07
39275;BME280;24980;48.874;2.332;2023-02-28T09:00:28;102321.69;;;28.32;32.09
39275;BME280;24980;48.874;2.332;2023-02-28T09:03:00;102315.94;;;28.31;32.10
39275;BME280;24980;48.874;2.332;2023-02-28T09:05:28;102321.69;;;28.32;32.10
39275;BME280;24980;48.874;2.332;2023-02-28T09:07:59;102318.45;;;28.32;32.10
39275;BME280;24980;48.874;2.332;2023-02-28T09:10:29;102319.64;;;28.33;32.09
39275;BME280;24980;48.874;2.332;2023-02-28T09:12:59;102324.50;;;28.32;32.10
39275;BME280;24980;48.874;2.332;2023-02-28T09:15:29;102324.97;;;28.32;32.10
39275;BME280;24980;48.874;2.332;2023-02-28T09:17:59;102323.73;;;28.34;32.09
39275;BME280;24980;48.874;2.332;2023-02-28T09:20:29;102322.31;;;28.36;32.09
39275;BME280;24980;48.874;2.332;2023-02-28T09:22:59;102326.41;;;28.36;32.09
39275;BME280;24980;48.874;2.332;2023-02-28T09:25:32;102326.84;;;28.36;32.09
39275;BME280;24980;48.874;2.332;2023-02-28T09:28:00;102329.73;;;28.36;32.10
39275;BME280;24980;48.874;2.332;2023-02-28T09:30:31;102327.73;;;28.35;32.10
39275;BME280;24980;48.874;2.332;2023-02-28T09:33:01;102328.66;;;28.35;32.10
39275;BME280;24980;48.874;2.332;2023-02-28T09:35:31;102330.58;;;28.37;32.10
39275;BME280;24980;48.874;2.332;2023-02-28T09:38:01;102331.43;;;28.37;32.09
39275;BME280;24980;48.874;2.332;2023-02-28T09:40:31;102328.27;;;28.38;32.09
39275;BME280;24980;48.874;2.332;2023-02-28T09:43:01;102330.32;;;28.38;32.09
39275;BME280;24980;48.874;2.332;2023-02-28T09:45:42;102324.19;;;28.37;32.10
39275;BME280;24980;48.874;2.332;2023-02-28T09:48:09;102324.88;;;28.37;32.10
39275;BME280;24980;48.874;2.332;2023-02-28T09:50:36;102317.61;;;28.37;32.09
39275;BME280;24980;48.874;2.332;2023-02-28T09:55:42;102314.42;;;28.39;32.09
39275;BME280;24980;48.874;2.332;2023-02-28T09:58:03;102312.41;;;28.38;32.09
39275;BME280;24980;48.874;2.332;2023-02-28T10:00:37;102307.14;;;28.36;32.10
39275;BME280;24980;48.874;2.332;2023-02-28T10:05:52;102308.12;;;28.34;32.11
39275;BME280;24980;48.874;2.332;2023-02-28T10:08:12;102315.03;;;28.34;32.11
39275;BME280;24980;48.874;2.332;2023-02-28T10:10:41;102314.17;;;28.35;32.10
39275;BME280;24980;48.874;2.332;2023-02-28T10:13:13;102312.97;;;28.35;32.10
39275;BME280;24980;48.874;2.332;2023-02-28T10:15:38;102309.19;;;28.36;32.10
39275;BME280;24980;48.874;2.332;2023-02-28T10:18:14;102305.69;;;28.35;32.10
39275;BME280;24980;48.874;2.332;2023-02-28T10:20:40;102306.20;;;28.35;32.12
39275;BME280;24980;48.874;2.332;2023-02-28T10:23:30;102306.28;;;28.36;32.13
39275;BME280;24980;48.874;2.332;2023-02-28T10:25:39;102292.89;;;28.36;32.13
39275;BME280;24980;48.874;2.332;2023-02-28T10:28:16;102292.08;;;28.35;32.14
39275;BME280;24980;48.874;2.332;2023-02-28T10:30:50;102283.05;;;28.34;32.14
39275;BME280;24980;48.874;2.332;2023-02-28T10:33:21;102285.68;;;28.38;32.14
39275;BME280;24980;48.874;2.332;2023-02-28T10:35:41;102279.23;;;28.42;32.14
39275;BME280;24980;48.874;2.332;2023-02-28T10:38:17;102273.66;;;28.44;32.17
39275;BME280;24980;48.874;2.332;2023-02-28T10:40:42;102278.34;;;28.45;32.19
39275;BME280;24980;48.874;2.332;2023-02-28T10:43:18;102274.73;;;28.45;32.21
39275;BME280;24980;48.874;2.332;2023-02-28T10:46:02;102273.91;;;28.45;32.24
39275;BME280;24980;48.874;2.332;2023-02-28T10:50:52;102266.50;;;28.43;32.26
39275;BME280;24980;48.874;2.332;2023-02-28T10:55:46;102262.14;;;28.45;32.30
39275;BME280;24980;48.874;2.332;2023-02-28T10:58:27;102259.16;;;28.44;32.34
39275;BME280;24980;48.874;2.332;2023-02-28T11:00:46;102265.92;;;28.42;32.35
39275;BME280;24980;48.874;2.332;2023-02-28T11:03:25;102250.52;;;28.41;32.36
39275;BME280;24980;48.874;2.332;2023-02-28T11:05:48;102248.98;;;28.41;32.38
39275;BME280;24980;48.874;2.332;2023-02-28T11:08:18;102244.90;;;28.41;32.40
39275;BME280;24980;48.874;2.332;2023-02-28T11:10:54;102250.39;;;28.42;32.43
39275;BME280;24980;48.874;2.332;2023-02-28T11:13:28;102241.42;;;28.44;32.44
39275;BME280;24980;48.874;2.332;2023-02-28T11:15:52;102244.36;;;28.46;32.46
39275;BME280;24980;48.874;2.332;2023-02-28T11:18:52;102250.23;;;28.46;32.49
39275;BME280;24980;48.874;2.332;2023-02-28T11:20:53;102239.50;;;28.45;32.52
39275;BME280;24980;48.874;2.332;2023-02-28T11:23:21;102234.69;;;28.44;32.54
39275;BME280;24980;48.874;2.332;2023-02-28T11:25:52;102236.97;;;28.40;32.57
39275;BME280;24980;48.874;2.332;2023-02-28T11:28:27;102240.98;;;28.39;32.56
39275;BME280;24980;48.874;2.332;2023-02-28T11:31:17;102241.16;;;28.39;32.57
39275;BME280;24980;48.874;2.332;2023-02-28T11:33:30;102239.45;;;28.38;32.57
39275;BME280;24980;48.874;2.332;2023-02-28T11:35:56;102236.08;;;28.38;32.58
39275;BME280;24980;48.874;2.332;2023-02-28T11:38:24;102239.16;;;28.37;32.59
39275;BME280;24980;48.874;2.332;2023-02-28T11:41:04;102236.91;;;28.34;32.60
39275;BME280;24980;48.874;2.332;2023-02-28T11:51:19;102215.10;;;28.23;32.63
39275;BME280;24980;48.874;2.332;2023-02-28T11:56:33;102202.80;;;28.20;32.66
39275;BME280;24980;48.874;2.332;2023-02-28T11:58:33;102204.12;;;28.18;32.67
39275;BME280;24980;48.874;2.332;2023-02-28T12:01:20;102202.94;;;28.16;32.69
39275;BME280;24980;48.874;2.332;2023-02-28T12:09:11;102202.62;;;28.11;32.69
39275;BME280;24980;48.874;2.332;2023-02-28T12:11:17;102200.08;;;28.10;32.69
39275;BME280;24980;48.874;2.332;2023-02-28T12:13:53;102190.23;;;28.08;32.69
39275;BME280;24980;48.874;2.332;2023-02-28T12:16:21;102192.64;;;28.05;32.70
39275;BME280;24980;48.874;2.332;2023-02-28T12:18:52;102182.81;;;28.03;32.71
39275;BME280;24980;48.874;2.332;2023-02-28T12:21:26;102176.84;;;28.02;32.71
39275;BME280;24980;48.874;2.332;2023-02-28T12:26:27;102170.16;;;28.10;32.72
39275;BME280;24980;48.874;2.332;2023-02-28T12:28:38;102169.07;;;28.13;32.75
39275;BME280;24980;48.874;2.332;2023-02-28T12:33:40;102161.08;;;28.17;32.82
39275;BME280;24980;48.874;2.332;2023-02-28T12:36:11;102160.72;;;28.19;32.84
39275;BME280;24980;48.874;2.332;2023-02-28T12:38:40;102151.53;;;28.22;32.87
39275;BME280;24980;48.874;2.332;2023-02-28T12:41:15;102150.11;;;28.25;32.89
39275;BME280;24980;48.874;2.332;2023-02-28T12:43:46;102142.81;;;28.28;32.92
39275;BME280;24980;48.874;2.332;2023-02-28T12:46:16;102140.54;;;28.30;32.94
39275;BME280;24980;48.874;2.332;2023-02-28T12:48:44;102145.31;;;28.30;32.99
39275;BME280;24980;48.874;2.332;2023-02-28T12:51:10;102143.43;;;28.31;33.02
39275;BME280;24980;48.874;2.332;2023-02-28T12:53:54;102144.88;;;28.32;33.05
39275;BME280;24980;48.874;2.332;2023-02-28T12:56:48;102144.73;;;28.34;33.06
39275;BME280;24980;48.874;2.332;2023-02-28T12:58:47;102139.61;;;28.35;33.06
39275;BME280;24980;48.874;2.332;2023-02-28T13:06:34;102132.67;;;28.39;33.11
39275;BME280;24980;48.874;2.332;2023-02-28T13:11:30;102118.91;;;28.38;33.15
39275;BME280;24980;48.874;2.332;2023-02-28T13:13:44;102108.19;;;28.40;33.18
39275;BME280;24980;48.874;2.332;2023-02-28T13:16:14;102113.84;;;28.43;33.18
39275;BME280;24980;48.874;2.332;2023-02-28T13:18:45;102109.52;;;28.45;33.18
39275;BME280;24980;48.874;2.332;2023-02-28T13:21:24;102105.08;;;28.45;33.21
39275;BME280;24980;48.874;2.332;2023-02-28T13:23:57;102104.31;;;28.46;33.21
39275;BME280;24980;48.874;2.332;2023-02-28T13:26:15;102101.14;;;28.47;33.22
39275;BME280;24980;48.874;2.332;2023-02-28T13:29:04;102108.13;;;28.47;33.24
39275;BME280;24980;48.874;2.332;2023-02-28T13:31:16;102109.94;;;28.46;33.25
39275;BME280;24980;48.874;2.332;2023-02-28T13:34:11;102106.58;;;28.45;33.26
39275;BME280;24980;48.874;2.332;2023-02-28T13:36:23;102104.12;;;28.43;33.24
39275;BME280;24980;48.874;2.332;2023-02-28T13:38:49;102098.74;;;28.43;33.23
39275;BME280;24980;48.874;2.332;2023-02-28T13:41:41;102103.50;;;28.45;33.22
39275;BME280;24980;48.874;2.332;2023-02-28T13:44:14;102101.15;;;28.46;33.22
39275;BME280;24980;48.874;2.332;2023-02-28T13:46:20;102099.73;;;28.48;33.23
39275;BME280;24980;48.874;2.332;2023-02-28T13:48:50;102104.27;;;28.51;33.22
39275;BME280;24980;48.874;2.332;2023-02-28T13:51:40;102101.95;;;28.53;33.23
39275;BME280;24980;48.874;2.332;2023-02-28T13:54:01;102096.27;;;28.55;33.24
39275;BME280;24980;48.874;2.332;2023-02-28T13:56:44;102092.73;;;28.54;33.24
39275;BME280;24980;48.874;2.332;2023-02-28T13:59:01;102085.66;;;28.52;33.25
39275;BME280;24980;48.874;2.332;2023-02-28T14:01:43;102097.49;;;28.50;33.24
39275;BME280;24980;48.874;2.332;2023-02-28T14:04:16;102097.98;;;28.47;33.24